sensor_id;sensor_type;location;lat;lon;timestamp;temperature;humidity
80743;SHT31;70142;50.894;6.052;2023-08-08T00:02:30;15.02;72.24
80743;SHT31;70142;50.894;6.052;2023-08-08T00:05:04;14.98;72.64
80743;SHT31;70142;50.894;6.052;2023-08-08T00:07:37;14.95;72.62
80743;SHT31;70142;50.894;6.052;2023-08-08T00:10:10;14.96;72.78
80743;SHT31;70142;50.894;6.052;2023-08-08T00:12:44;14.93;72.86
80743;SHT31;70142;50.894;6.052;2023-08-08T00:15:18;14.88;73.30
80743;SHT31;70142;50.894;6.052;2023-08-08T00:17:51;14.85;73.30
80743;SHT31;70142;50.894;6.052;2023-08-08T00:20:25;14.78;73.51
80743;SHT31;70142;50.894;6.052;2023-08-08T00:22:58;14.79;73.63
80743;SHT31;70142;50.894;6.052;2023-08-08T00:25:31;14.78;73.69
80743;SHT31;70142;50.894;6.052;2023-08-08T00:28:05;14.82;73.68
80743;SHT31;70142;50.894;6.052;2023-08-08T00:30:39;14.78;73.86
80743;SHT31;70142;50.894;6.052;2023-08-08T00:33:12;14.72;74.12
80743;SHT31;70142;50.894;6.052;2023-08-08T00:35:46;14.78;73.95
80743;SHT31;70142;50.894;6.052;2023-08-08T00:38:19;14.64;74.52
80743;SHT31;70142;50.894;6.052;2023-08-08T00:40:52;14.61;74.69
80743;SHT31;70142;50.894;6.052;2023-08-08T00:43:26;14.57;75.06
80743;SHT31;70142;50.894;6.052;2023-08-08T00:46:01;14.64;74.89
80743;SHT31;70142;50.894;6.052;2023-08-08T00:48:34;14.63;74.92
80743;SHT31;70142;50.894;6.052;2023-08-08T00:51:08;14.57;75.22
80743;SHT31;70142;50.894;6.052;2023-08-08T00:53:44;14.58;75.07
80743;SHT31;70142;50.894;6.052;2023-08-08T00:56:18;14.49;75.50
80743;SHT31;70142;50.894;6.052;2023-08-08T00:58:52;14.51;75.69
80743;SHT31;70142;50.894;6.052;2023-08-08T01:01:26;14.55;75.49
80743;SHT31;70142;50.894;6.052;2023-08-08T01:04:00;14.55;75.44
80743;SHT31;70142;50.894;6.052;2023-08-08T01:06:39;14.48;75.69
80743;SHT31;70142;50.894;6.052;2023-08-08T01:09:23;14.58;75.42
80743;SHT31;70142;50.894;6.052;2023-08-08T01:12:02;14.61;75.30
80743;SHT31;70142;50.894;6.052;2023-08-08T01:14:37;14.65;75.15
80743;SHT31;70142;50.894;6.052;2023-08-08T01:17:14;14.58;75.27
80743;SHT31;70142;50.894;6.052;2023-08-08T01:19:47;14.60;75.32
80743;SHT31;70142;50.894;6.052;2023-08-08T01:22:25;14.48;75.62
80743;SHT31;70142;50.894;6.052;2023-08-08T01:25:04;14.57;75.60
80743;SHT31;70142;50.894;6.052;2023-08-08T01:27:39;14.49;75.42
80743;SHT31;70142;50.894;6.052;2023-08-08T01:30:12;14.48;75.37
80743;SHT31;70142;50.894;6.052;2023-08-08T01:32:46;14.52;75.46
80743;SHT31;70142;50.894;6.052;2023-08-08T01:35:20;14.45;75.54
80743;SHT31;70142;50.894;6.052;2023-08-08T01:38:00;14.47;75.53
80743;SHT31;70142;50.894;6.052;2023-08-08T01:40:39;14.51;75.42
80743;SHT31;70142;50.894;6.052;2023-08-08T01:43:15;14.54;75.41
80743;SHT31;70142;50.894;6.052;2023-08-08T01:45:50;14.44;75.70
80743;SHT31;70142;50.894;6.052;2023-08-08T01:48:25;14.40;75.76
80743;SHT31;70142;50.894;6.052;2023-08-08T01:51:00;14.45;75.78
80743;SHT31;70142;50.894;6.052;2023-08-08T01:53:33;14.40;75.94
80743;SHT31;70142;50.894;6.052;2023-08-08T01:56:08;14.35;76.16
80743;SHT31;70142;50.894;6.052;2023-08-08T01:58:41;14.34;76.39
80743;SHT31;70142;50.894;6.052;2023-08-08T02:01:14;14.31;76.43
80743;SHT31;70142;50.894;6.052;2023-08-08T02:03:49;14.34;76.35
80743;SHT31;70142;50.894;6.052;2023-08-08T02:06:22;14.28;76.73
80743;SHT31;70142;50.894;6.052;2023-08-08T02:08:56;14.28;76.90
80743;SHT31;70142;50.894;6.052;2023-08-08T02:11:31;14.27;76.95
80743;SHT31;70142;50.894;6.052;2023-08-08T02:14:04;14.24;77.19
80743;SHT31;70142;50.894;6.052;2023-08-08T02:16:37;14.23;77.42
80743;SHT31;70142;50.894;6.052;2023-08-08T02:19:11;14.21;77.41
80743;SHT31;70142;50.894;6.052;2023-08-08T02:21:44;14.10;77.97
80743;SHT31;70142;50.894;6.052;2023-08-08T02:24:18;14.12;78.05
80743;SHT31;70142;50.894;6.052;2023-08-08T02:26:52;14.07;78.40
80743;SHT31;70142;50.894;6.052;2023-08-08T02:29:26;14.06;78.48
80743;SHT31;70142;50.894;6.052;2023-08-08T02:31:59;14.06;78.60
80743;SHT31;70142;50.894;6.052;2023-08-08T02:34:33;14.09;78.64
80743;SHT31;70142;50.894;6.052;2023-08-08T02:37:06;14.07;78.89
80743;SHT31;70142;50.894;6.052;2023-08-08T02:39:39;14.14;78.68
80743;SHT31;70142;50.894;6.052;2023-08-08T02:42:14;14.04;78.96
80743;SHT31;70142;50.894;6.052;2023-08-08T02:44:48;14.04;79.02
80743;SHT31;70142;50.894;6.052;2023-08-08T02:47:21;13.97;79.21
80743;SHT31;70142;50.894;6.052;2023-08-08T02:49:55;13.93;79.55
80743;SHT31;70142;50.894;6.052;2023-08-08T02:52:29;13.96;79.52
80743;SHT31;70142;50.894;6.052;2023-08-08T02:55:02;13.99;79.65
80743;SHT31;70142;50.894;6.052;2023-08-08T02:57:37;13.99;79.86
80743;SHT31;70142;50.894;6.052;2023-08-08T03:00:11;14.09;79.65
80743;SHT31;70142;50.894;6.052;2023-08-08T03:02:47;14.10;79.71
80743;SHT31;70142;50.894;6.052;2023-08-08T03:05:21;14.12;79.75
80743;SHT31;70142;50.894;6.052;2023-08-08T03:07:55;14.24;79.41
80743;SHT31;70142;50.894;6.052;2023-08-08T03:10:30;14.35;79.17
80743;SHT31;70142;50.894;6.052;2023-08-08T03:13:05;14.38;79.17
80743;SHT31;70142;50.894;6.052;2023-08-08T03:15:38;14.49;79.17
80743;SHT31;70142;50.894;6.052;2023-08-08T03:18:14;14.51;79.06
80743;SHT31;70142;50.894;6.052;2023-08-08T03:20:48;14.47;79.32
80743;SHT31;70142;50.894;6.052;2023-08-08T03:23:22;14.45;79.58
80743;SHT31;70142;50.894;6.052;2023-08-08T03:25:57;14.58;79.31
80743;SHT31;70142;50.894;6.052;2023-08-08T03:28:32;14.65;79.15
80743;SHT31;70142;50.894;6.052;2023-08-08T03:31:05;14.64;79.04
80743;SHT31;70142;50.894;6.052;2023-08-08T03:33:39;14.61;79.20
80743;SHT31;70142;50.894;6.052;2023-08-08T03:36:15;14.51;79.53
80743;SHT31;70142;50.894;6.052;2023-08-08T03:38:48;14.55;79.54
80743;SHT31;70142;50.894;6.052;2023-08-08T03:41:23;14.64;79.59
80743;SHT31;70142;50.894;6.052;2023-08-08T03:43:58;14.64;79.54
80743;SHT31;70142;50.894;6.052;2023-08-08T03:46:31;14.72;79.49
80743;SHT31;70142;50.894;6.052;2023-08-08T03:49:05;14.75;79.34
80743;SHT31;70142;50.894;6.052;2023-08-08T03:51:39;14.82;79.27
80743;SHT31;70142;50.894;6.052;2023-08-08T03:54:13;14.81;79.20
80743;SHT31;70142;50.894;6.052;2023-08-08T03:56:48;14.77;79.19
80743;SHT31;70142;50.894;6.052;2023-08-08T03:59:22;14.61;79.57
80743;SHT31;70142;50.894;6.052;2023-08-08T04:01:55;14.58;79.90
80743;SHT31;70142;50.894;6.052;2023-08-08T04:04:29;14.63;79.69
80743;SHT31;70142;50.894;6.052;2023-08-08T04:07:02;14.47;80.04
80743;SHT31;70142;50.894;6.052;2023-08-08T04:09:36;14.52;79.97
80743;SHT31;70142;50.894;6.052;2023-08-08T04:12:10;14.54;80.11
80743;SHT31;70142;50.894;6.052;2023-08-08T04:14:44;14.44;80.25
80743;SHT31;70142;50.894;6.052;2023-08-08T04:17:17;14.37;80.58
80743;SHT31;70142;50.894;6.052;2023-08-08T04:19:50;14.41;80.36
80743;SHT31;70142;50.894;6.052;2023-08-08T04:22:24;14.38;80.43
80743;SHT31;70142;50.894;6.052;2023-08-08T04:24:59;14.33;80.36
80743;SHT31;70142;50.894;6.052;2023-08-08T04:27:32;14.28;80.64
80743;SHT31;70142;50.894;6.052;2023-08-08T04:30:08;14.24;80.71
80743;SHT31;70142;50.894;6.052;2023-08-08T04:32:41;14.24;80.84
80743;SHT31;70142;50.894;6.052;2023-08-08T04:35:15;14.21;80.83
80743;SHT31;70142;50.894;6.052;2023-08-08T04:37:48;14.33;80.57
80743;SHT31;70142;50.894;6.052;2023-08-08T04:40:21;14.35;80.57
80743;SHT31;70142;50.894;6.052;2023-08-08T04:42:55;14.41;80.37
80743;SHT31;70142;50.894;6.052;2023-08-08T04:45:29;14.42;80.25
80743;SHT31;70142;50.894;6.052;2023-08-08T04:48:03;14.42;80.24
80743;SHT31;70142;50.894;6.052;2023-08-08T04:50:36;14.47;80.14
80743;SHT31;70142;50.894;6.052;2023-08-08T04:53:10;14.48;79.97
80743;SHT31;70142;50.894;6.052;2023-08-08T04:55:43;14.54;79.82
80743;SHT31;70142;50.894;6.052;2023-08-08T04:58:17;14.52;79.91
80743;SHT31;70142;50.894;6.052;2023-08-08T05:00:51;14.48;79.95
80743;SHT31;70142;50.894;6.052;2023-08-08T05:03:24;14.65;79.48
80743;SHT31;70142;50.894;6.052;2023-08-08T05:05:58;14.85;78.57
80743;SHT31;70142;50.894;6.052;2023-08-08T05:08:32;15.15;77.40
80743;SHT31;70142;50.894;6.052;2023-08-08T05:11:05;15.30;76.65
80743;SHT31;70142;50.894;6.052;2023-08-08T05:13:38;15.35;76.26
80743;SHT31;70142;50.894;6.052;2023-08-08T05:16:13;14.89;77.81
80743;SHT31;70142;50.894;6.052;2023-08-08T05:18:46;14.79;78.33
80743;SHT31;70142;50.894;6.052;2023-08-08T05:21:21;14.82;78.36
80743;SHT31;70142;50.894;6.052;2023-08-08T05:23:54;14.89;78.34
80743;SHT31;70142;50.894;6.052;2023-08-08T05:26:27;14.89;77.99
80743;SHT31;70142;50.894;6.052;2023-08-08T05:29:00;14.87;78.14
80743;SHT31;70142;50.894;6.052;2023-08-08T05:31:35;14.91;78.31
80743;SHT31;70142;50.894;6.052;2023-08-08T05:34:08;15.02;77.83
80743;SHT31;70142;50.894;6.052;2023-08-08T05:36:41;15.05;77.77
80743;SHT31;70142;50.894;6.052;2023-08-08T05:39:15;14.89;77.98
80743;SHT31;70142;50.894;6.052;2023-08-08T05:41:48;15.00;78.02
80743;SHT31;70142;50.894;6.052;2023-08-08T05:44:21;14.96;78.05
80743;SHT31;70142;50.894;6.052;2023-08-08T05:46:56;15.02;77.97
80743;SHT31;70142;50.894;6.052;2023-08-08T05:49:29;15.12;77.86
80743;SHT31;70142;50.894;6.052;2023-08-08T05:52:02;15.59;76.62
80743;SHT31;70142;50.894;6.052;2023-08-08T05:54:36;16.08;74.40
80743;SHT31;70142;50.894;6.052;2023-08-08T05:57:09;16.42;73.45
80743;SHT31;70142;50.894;6.052;2023-08-08T05:59:42;16.71;72.95
80743;SHT31;70142;50.894;6.052;2023-08-08T06:02:18;16.22;74.09
80743;SHT31;70142;50.894;6.052;2023-08-08T06:04:51;16.03;74.94
80743;SHT31;70142;50.894;6.052;2023-08-08T06:07:24;15.73;76.17
80743;SHT31;70142;50.894;6.052;2023-08-08T06:09:57;15.53;76.73
80743;SHT31;70142;50.894;6.052;2023-08-08T06:12:31;15.49;77.16
80743;SHT31;70142;50.894;6.052;2023-08-08T06:15:05;15.53;77.34
80743;SHT31;70142;50.894;6.052;2023-08-08T06:17:40;15.53;77.05
80743;SHT31;70142;50.894;6.052;2023-08-08T06:20:13;15.49;77.17
80743;SHT31;70142;50.894;6.052;2023-08-08T06:22:46;15.51;77.25
80743;SHT31;70142;50.894;6.052;2023-08-08T06:25:21;15.59;77.38
80743;SHT31;70142;50.894;6.052;2023-08-08T06:27:54;15.67;76.89
80743;SHT31;70142;50.894;6.052;2023-08-08T06:30:27;15.61;76.63
80743;SHT31;70142;50.894;6.052;2023-08-08T06:33:01;15.73;77.09
80743;SHT31;70142;50.894;6.052;2023-08-08T06:35:35;15.77;77.11
80743;SHT31;70142;50.894;6.052;2023-08-08T06:38:08;15.79;76.63
80743;SHT31;70142;50.894;6.052;2023-08-08T06:40:41;15.83;76.72
80743;SHT31;70142;50.894;6.052;2023-08-08T06:43:15;15.89;76.66
80743;SHT31;70142;50.894;6.052;2023-08-08T06:45:48;15.71;77.03
80743;SHT31;70142;50.894;6.052;2023-08-08T06:48:22;15.61;77.20
80743;SHT31;70142;50.894;6.052;2023-08-08T06:50:56;15.83;77.05
80743;SHT31;70142;50.894;6.052;2023-08-08T06:53:29;16.11;76.19
80743;SHT31;70142;50.894;6.052;2023-08-08T06:56:02;16.18;75.70
80743;SHT31;70142;50.894;6.052;2023-08-08T06:58:36;16.36;75.68
80743;SHT31;70142;50.894;6.052;2023-08-08T07:01:09;16.55;75.28
80743;SHT31;70142;50.894;6.052;2023-08-08T07:03:44;16.36;74.99
80743;SHT31;70142;50.894;6.052;2023-08-08T07:06:18;16.25;75.74
80743;SHT31;70142;50.894;6.052;2023-08-08T07:08:51;16.21;75.69
80743;SHT31;70142;50.894;6.052;2023-08-08T07:11:25;16.18;76.45
80743;SHT31;70142;50.894;6.052;2023-08-08T07:13:58;16.20;75.91
80743;SHT31;70142;50.894;6.052;2023-08-08T07:16:31;16.15;76.26
80743;SHT31;70142;50.894;6.052;2023-08-08T07:19:06;16.15;75.91
80743;SHT31;70142;50.894;6.052;2023-08-08T07:21:39;16.15;76.22
80743;SHT31;70142;50.894;6.052;2023-08-08T07:24:13;16.25;76.14
80743;SHT31;70142;50.894;6.052;2023-08-08T07:26:46;16.17;76.07
80743;SHT31;70142;50.894;6.052;2023-08-08T07:29:20;16.35;75.36
80743;SHT31;70142;50.894;6.052;2023-08-08T07:31:54;16.68;74.97
80743;SHT31;70142;50.894;6.052;2023-08-08T07:34:28;16.69;74.26
80743;SHT31;70142;50.894;6.052;2023-08-08T07:37:05;16.48;74.94
80743;SHT31;70142;50.894;6.052;2023-08-08T07:39:38;16.54;74.64
80743;SHT31;70142;50.894;6.052;2023-08-08T07:42:11;16.72;74.19
80743;SHT31;70142;50.894;6.052;2023-08-08T07:44:44;16.85;73.85
80743;SHT31;70142;50.894;6.052;2023-08-08T07:47:17;17.02;73.02
80743;SHT31;70142;50.894;6.052;2023-08-08T07:49:52;17.17;72.85
80743;SHT31;70142;50.894;6.052;2023-08-08T07:52:25;17.34;72.56
80743;SHT31;70142;50.894;6.052;2023-08-08T07:54:59;17.20;72.72
80743;SHT31;70142;50.894;6.052;2023-08-08T07:57:33;17.19;73.06
80743;SHT31;70142;50.894;6.052;2023-08-08T08:00:07;17.31;72.16
80743;SHT31;70142;50.894;6.052;2023-08-08T08:02:45;17.48;71.34
80743;SHT31;70142;50.894;6.052;2023-08-08T08:05:20;17.66;71.05
80743;SHT31;70142;50.894;6.052;2023-08-08T08:07:53;17.44;71.02
80743;SHT31;70142;50.894;6.052;2023-08-08T08:10:26;17.30;70.86
80743;SHT31;70142;50.894;6.052;2023-08-08T08:13:00;17.36;71.60
80743;SHT31;70142;50.894;6.052;2023-08-08T08:15:33;17.71;69.12
80743;SHT31;70142;50.894;6.052;2023-08-08T08:18:09;17.67;69.70
80743;SHT31;70142;50.894;6.052;2023-08-08T08:20:44;17.90;69.90
80743;SHT31;70142;50.894;6.052;2023-08-08T08:23:18;17.73;69.50
80743;SHT31;70142;50.894;6.052;2023-08-08T08:25:51;18.01;68.69
80743;SHT31;70142;50.894;6.052;2023-08-08T08:28:25;18.12;68.29
80743;SHT31;70142;50.894;6.052;2023-08-08T08:31:04;17.88;69.09
80743;SHT31;70142;50.894;6.052;2023-08-08T08:33:37;18.16;68.85
80743;SHT31;70142;50.894;6.052;2023-08-08T08:36:12;18.26;68.09
80743;SHT31;70142;50.894;6.052;2023-08-08T08:38:45;18.43;67.47
80743;SHT31;70142;50.894;6.052;2023-08-08T08:41:26;18.63;67.42
80743;SHT31;70142;50.894;6.052;2023-08-08T08:44:00;18.55;67.06
80743;SHT31;70142;50.894;6.052;2023-08-08T08:46:35;18.46;67.93
80743;SHT31;70142;50.894;6.052;2023-08-08T08:49:09;18.45;67.74
80743;SHT31;70142;50.894;6.052;2023-08-08T08:51:45;18.35;68.11
80743;SHT31;70142;50.894;6.052;2023-08-08T08:54:19;18.24;67.89
80743;SHT31;70142;50.894;6.052;2023-08-08T08:56:53;18.35;68.73
80743;SHT31;70142;50.894;6.052;2023-08-08T08:59:27;18.83;68.39
80743;SHT31;70142;50.894;6.052;2023-08-08T09:02:00;18.70;66.47
80743;SHT31;70142;50.894;6.052;2023-08-08T09:04:35;18.67;66.22
80743;SHT31;70142;50.894;6.052;2023-08-08T09:07:12;18.66;65.99
80743;SHT31;70142;50.894;6.052;2023-08-08T09:09:45;18.35;66.63
80743;SHT31;70142;50.894;6.052;2023-08-08T09:12:19;18.39;66.80
80743;SHT31;70142;50.894;6.052;2023-08-08T09:14:55;18.33;67.43
80743;SHT31;70142;50.894;6.052;2023-08-08T09:17:29;18.35;67.27
80743;SHT31;70142;50.894;6.052;2023-08-08T09:20:06;18.82;66.52
80743;SHT31;70142;50.894;6.052;2023-08-08T09:22:44;19.50;63.86
80743;SHT31;70142;50.894;6.052;2023-08-08T09:25:17;19.58;63.55
80743;SHT31;70142;50.894;6.052;2023-08-08T09:27:51;19.39;63.81
80743;SHT31;70142;50.894;6.052;2023-08-08T09:30:25;19.23;64.58
80743;SHT31;70142;50.894;6.052;2023-08-08T09:32:59;18.93;64.84
80743;SHT31;70142;50.894;6.052;2023-08-08T09:35:33;18.70;65.23
80743;SHT31;70142;50.894;6.052;2023-08-08T09:38:07;18.77;65.52
80743;SHT31;70142;50.894;6.052;2023-08-08T09:40:41;18.52;66.39
80743;SHT31;70142;50.894;6.052;2023-08-08T09:43:14;18.60;66.23
80743;SHT31;70142;50.894;6.052;2023-08-08T09:45:47;18.57;66.20
80743;SHT31;70142;50.894;6.052;2023-08-08T09:48:21;18.72;65.44
80743;SHT31;70142;50.894;6.052;2023-08-08T09:50:54;18.65;65.10
80743;SHT31;70142;50.894;6.052;2023-08-08T09:53:30;19.41;63.71
80743;SHT31;70142;50.894;6.052;2023-08-08T09:56:05;19.38;63.24
80743;SHT31;70142;50.894;6.052;2023-08-08T09:58:39;19.46;62.91
80743;SHT31;70142;50.894;6.052;2023-08-08T10:01:14;19.55;62.65
80743;SHT31;70142;50.894;6.052;2023-08-08T10:03:48;19.79;61.56
80743;SHT31;70142;50.894;6.052;2023-08-08T10:06:21;19.69;61.26
80743;SHT31;70142;50.894;6.052;2023-08-08T10:08:56;19.71;61.20
80743;SHT31;70142;50.894;6.052;2023-08-08T10:11:31;19.75;62.27
80743;SHT31;70142;50.894;6.052;2023-08-08T10:14:06;19.65;62.63
80743;SHT31;70142;50.894;6.052;2023-08-08T10:16:39;19.77;62.35
80743;SHT31;70142;50.894;6.052;2023-08-08T10:19:21;19.68;62.34
80743;SHT31;70142;50.894;6.052;2023-08-08T10:22:00;19.79;61.46
80743;SHT31;70142;50.894;6.052;2023-08-08T10:24:38;19.72;61.51
80743;SHT31;70142;50.894;6.052;2023-08-08T10:27:11;20.00;60.50
80743;SHT31;70142;50.894;6.052;2023-08-08T10:29:46;19.91;60.25
80743;SHT31;70142;50.894;6.052;2023-08-08T10:32:24;19.72;61.04
80743;SHT31;70142;50.894;6.052;2023-08-08T10:35:03;19.59;61.26
80743;SHT31;70142;50.894;6.052;2023-08-08T10:37:52;19.75;61.31
80743;SHT31;70142;50.894;6.052;2023-08-08T10:40:32;19.85;60.86
80743;SHT31;70142;50.894;6.052;2023-08-08T10:43:11;19.96;62.12
80743;SHT31;70142;50.894;6.052;2023-08-08T10:45:45;20.08;61.15
80743;SHT31;70142;50.894;6.052;2023-08-08T10:48:30;19.68;61.44
80743;SHT31;70142;50.894;6.052;2023-08-08T10:51:05;19.41;61.75
80743;SHT31;70142;50.894;6.052;2023-08-08T10:53:39;19.27;63.02
80743;SHT31;70142;50.894;6.052;2023-08-08T10:56:14;19.20;61.87
80743;SHT31;70142;50.894;6.052;2023-08-08T10:58:48;19.16;62.12
80743;SHT31;70142;50.894;6.052;2023-08-08T11:01:24;19.11;62.78
80743;SHT31;70142;50.894;6.052;2023-08-08T11:03:58;19.07;63.67
80743;SHT31;70142;50.894;6.052;2023-08-08T11:06:34;19.00;63.88
80743;SHT31;70142;50.894;6.052;2023-08-08T11:09:08;18.70;64.21
80743;SHT31;70142;50.894;6.052;2023-08-08T11:11:44;18.57;63.90
80743;SHT31;70142;50.894;6.052;2023-08-08T11:14:20;18.42;63.89
80743;SHT31;70142;50.894;6.052;2023-08-08T11:16:54;18.43;64.79
80743;SHT31;70142;50.894;6.052;2023-08-08T11:19:27;18.63;64.04
80743;SHT31;70142;50.894;6.052;2023-08-08T11:22:09;18.76;63.73
80743;SHT31;70142;50.894;6.052;2023-08-08T11:24:43;18.79;63.89
80743;SHT31;70142;50.894;6.052;2023-08-08T11:27:17;18.82;63.65
80743;SHT31;70142;50.894;6.052;2023-08-08T11:29:56;19.02;63.42
80743;SHT31;70142;50.894;6.052;2023-08-08T11:32:29;19.03;63.54
80743;SHT31;70142;50.894;6.052;2023-08-08T11:35:04;19.08;63.11
80743;SHT31;70142;50.894;6.052;2023-08-08T11:37:41;19.21;63.91
80743;SHT31;70142;50.894;6.052;2023-08-08T11:40:15;19.31;62.33
80743;SHT31;70142;50.894;6.052;2023-08-08T11:42:51;19.62;61.66
80743;SHT31;70142;50.894;6.052;2023-08-08T11:45:24;19.95;60.77
80743;SHT31;70142;50.894;6.052;2023-08-08T11:47:58;20.00;60.52
80743;SHT31;70142;50.894;6.052;2023-08-08T11:50:32;20.08;60.20
80743;SHT31;70142;50.894;6.052;2023-08-08T11:53:06;20.34;59.40
80743;SHT31;70142;50.894;6.052;2023-08-08T11:55:39;20.04;60.71
80743;SHT31;70142;50.894;6.052;2023-08-08T11:58:15;19.89;60.15
80743;SHT31;70142;50.894;6.052;2023-08-08T12:00:48;19.58;59.75
80743;SHT31;70142;50.894;6.052;2023-08-08T12:03:25;19.43;59.72
80743;SHT31;70142;50.894;6.052;2023-08-08T12:06:01;19.08;61.27
80743;SHT31;70142;50.894;6.052;2023-08-08T12:08:36;19.10;60.88
80743;SHT31;70142;50.894;6.052;2023-08-08T12:11:10;19.11;61.05
80743;SHT31;70142;50.894;6.052;2023-08-08T12:13:46;19.23;59.87
80743;SHT31;70142;50.894;6.052;2023-08-08T12:16:19;19.26;59.80
80743;SHT31;70142;50.894;6.052;2023-08-08T12:18:53;19.46;58.87
80743;SHT31;70142;50.894;6.052;2023-08-08T12:21:26;19.74;59.28
80743;SHT31;70142;50.894;6.052;2023-08-08T12:24:00;19.54;59.73
80743;SHT31;70142;50.894;6.052;2023-08-08T12:26:33;19.50;59.46
80743;SHT31;70142;50.894;6.052;2023-08-08T12:29:07;19.38;59.22
80743;SHT31;70142;50.894;6.052;2023-08-08T12:31:41;19.02;60.23
80743;SHT31;70142;50.894;6.052;2023-08-08T12:34:14;18.99;60.73
80743;SHT31;70142;50.894;6.052;2023-08-08T12:36:47;19.04;60.55
80743;SHT31;70142;50.894;6.052;2023-08-08T12:39:20;18.99;60.94
80743;SHT31;70142;50.894;6.052;2023-08-08T12:41:54;18.87;60.75
80743;SHT31;70142;50.894;6.052;2023-08-08T12:44:31;18.89;61.25
80743;SHT31;70142;50.894;6.052;2023-08-08T12:47:05;18.77;61.29
80743;SHT31;70142;50.894;6.052;2023-08-08T12:49:38;18.72;61.59
80743;SHT31;70142;50.894;6.052;2023-08-08T12:52:11;18.70;61.96
80743;SHT31;70142;50.894;6.052;2023-08-08T12:54:45;18.60;61.72
80743;SHT31;70142;50.894;6.052;2023-08-08T12:57:18;18.70;62.02
80743;SHT31;70142;50.894;6.052;2023-08-08T12:59:53;18.63;62.41
80743;SHT31;70142;50.894;6.052;2023-08-08T13:02:26;18.70;62.20
80743;SHT31;70142;50.894;6.052;2023-08-08T13:05:01;18.55;62.80
80743;SHT31;70142;50.894;6.052;2023-08-08T13:07:35;18.51;63.22
80743;SHT31;70142;50.894;6.052;2023-08-08T13:10:09;18.84;62.18
80743;SHT31;70142;50.894;6.052;2023-08-08T13:12:43;19.14;62.67
80743;SHT31;70142;50.894;6.052;2023-08-08T13:15:17;19.37;61.02
80743;SHT31;70142;50.894;6.052;2023-08-08T13:17:51;19.38;61.16
80743;SHT31;70142;50.894;6.052;2023-08-08T13:20:25;19.23;61.74
80743;SHT31;70142;50.894;6.052;2023-08-08T13:22:58;19.21;61.70
80743;SHT31;70142;50.894;6.052;2023-08-08T13:25:31;19.27;61.52
80743;SHT31;70142;50.894;6.052;2023-08-08T13:28:06;19.50;61.05
80743;SHT31;70142;50.894;6.052;2023-08-08T13:30:41;19.69;60.95
80743;SHT31;70142;50.894;6.052;2023-08-08T13:33:15;19.93;59.92
80743;SHT31;70142;50.894;6.052;2023-08-08T13:35:48;20.62;58.67
80743;SHT31;70142;50.894;6.052;2023-08-08T13:38:21;21.39;56.84
80743;SHT31;70142;50.894;6.052;2023-08-08T13:40:56;21.85;55.46
80743;SHT31;70142;50.894;6.052;2023-08-08T13:43:29;21.25;56.84
80743;SHT31;70142;50.894;6.052;2023-08-08T13:46:04;20.81;56.29
80743;SHT31;70142;50.894;6.052;2023-08-08T13:48:40;21.14;57.06
80743;SHT31;70142;50.894;6.052;2023-08-08T13:51:13;22.39;54.45
80743;SHT31;70142;50.894;6.052;2023-08-08T13:53:46;21.98;54.25
80743;SHT31;70142;50.894;6.052;2023-08-08T13:56:20;21.15;56.17
80743;SHT31;70142;50.894;6.052;2023-08-08T13:58:54;21.78;55.69
80743;SHT31;70142;50.894;6.052;2023-08-08T14:01:28;22.30;53.42
80743;SHT31;70142;50.894;6.052;2023-08-08T14:04:02;21.96;54.30
80743;SHT31;70142;50.894;6.052;2023-08-08T14:06:36;21.32;55.18
80743;SHT31;70142;50.894;6.052;2023-08-08T14:09:09;21.89;54.31
80743;SHT31;70142;50.894;6.052;2023-08-08T14:11:44;22.35;53.83
80743;SHT31;70142;50.894;6.052;2023-08-08T14:14:17;22.80;51.70
80743;SHT31;70142;50.894;6.052;2023-08-08T14:16:52;22.87;52.59
80743;SHT31;70142;50.894;6.052;2023-08-08T14:19:27;22.88;51.56
80743;SHT31;70142;50.894;6.052;2023-08-08T14:22:00;22.19;53.25
80743;SHT31;70142;50.894;6.052;2023-08-08T14:24:33;21.90;56.12
80743;SHT31;70142;50.894;6.052;2023-08-08T14:27:06;22.51;52.73
80743;SHT31;70142;50.894;6.052;2023-08-08T14:29:40;22.00;53.03
80743;SHT31;70142;50.894;6.052;2023-08-08T14:32:14;22.05;54.53
80743;SHT31;70142;50.894;6.052;2023-08-08T14:34:47;22.36;53.03
80743;SHT31;70142;50.894;6.052;2023-08-08T14:37:21;22.20;53.88
80743;SHT31;70142;50.894;6.052;2023-08-08T14:39:54;21.76;53.29
80743;SHT31;70142;50.894;6.052;2023-08-08T14:42:27;20.95;55.31
80743;SHT31;70142;50.894;6.052;2023-08-08T14:45:00;21.14;55.84
80743;SHT31;70142;50.894;6.052;2023-08-08T14:47:34;20.93;55.81
80743;SHT31;70142;50.894;6.052;2023-08-08T14:50:08;20.81;55.68
80743;SHT31;70142;50.894;6.052;2023-08-08T14:52:41;21.61;55.33
80743;SHT31;70142;50.894;6.052;2023-08-08T14:55:14;21.61;54.01
80743;SHT31;70142;50.894;6.052;2023-08-08T14:57:47;21.56;54.59
80743;SHT31;70142;50.894;6.052;2023-08-08T15:00:21;21.78;53.65
80743;SHT31;70142;50.894;6.052;2023-08-08T15:02:55;21.23;55.15
80743;SHT31;70142;50.894;6.052;2023-08-08T15:05:28;21.10;55.95
80743;SHT31;70142;50.894;6.052;2023-08-08T15:08:02;20.81;56.78
80743;SHT31;70142;50.894;6.052;2023-08-08T15:10:35;21.56;55.72
80743;SHT31;70142;50.894;6.052;2023-08-08T15:13:10;21.35;55.46
80743;SHT31;70142;50.894;6.052;2023-08-08T15:15:44;20.66;56.48
80743;SHT31;70142;50.894;6.052;2023-08-08T15:18:18;20.69;57.63
80743;SHT31;70142;50.894;6.052;2023-08-08T15:20:51;20.85;56.81
80743;SHT31;70142;50.894;6.052;2023-08-08T15:23:24;21.14;56.51
80743;SHT31;70142;50.894;6.052;2023-08-08T15:25:59;20.81;56.47
80743;SHT31;70142;50.894;6.052;2023-08-08T15:28:32;21.08;56.53
80743;SHT31;70142;50.894;6.052;2023-08-08T15:31:08;21.18;56.31
80743;SHT31;70142;50.894;6.052;2023-08-08T15:33:44;21.56;55.66
80743;SHT31;70142;50.894;6.052;2023-08-08T15:36:18;21.38;55.51
80743;SHT31;70142;50.894;6.052;2023-08-08T15:38:52;21.12;55.38
80743;SHT31;70142;50.894;6.052;2023-08-08T15:41:25;20.74;55.83
80743;SHT31;70142;50.894;6.052;2023-08-08T15:43:58;20.81;56.75
80743;SHT31;70142;50.894;6.052;2023-08-08T15:46:32;20.98;56.53
80743;SHT31;70142;50.894;6.052;2023-08-08T15:49:06;20.80;57.40
80743;SHT31;70142;50.894;6.052;2023-08-08T15:51:42;20.39;58.08
80743;SHT31;70142;50.894;6.052;2023-08-08T15:54:15;20.33;57.86
80743;SHT31;70142;50.894;6.052;2023-08-08T15:56:49;20.30;57.81
80743;SHT31;70142;50.894;6.052;2023-08-08T15:59:22;20.62;57.58
80743;SHT31;70142;50.894;6.052;2023-08-08T16:01:55;20.44;57.58
80743;SHT31;70142;50.894;6.052;2023-08-08T16:04:30;20.22;57.73
80743;SHT31;70142;50.894;6.052;2023-08-08T16:07:04;20.22;58.30
80743;SHT31;70142;50.894;6.052;2023-08-08T16:09:37;20.19;58.97
80743;SHT31;70142;50.894;6.052;2023-08-08T16:12:10;20.20;59.68
80743;SHT31;70142;50.894;6.052;2023-08-08T16:14:44;20.36;59.13